sensor_id;sensor_type;location;lat;lon;timestamp;temperature;humidity
20977;DHT22;10647;51.016;3.720;2023-04-03T00:01:42;5.40;99.90
20977;DHT22;10647;51.016;3.720;2023-04-03T00:04:11;5.40;99.90
20977;DHT22;10647;51.016;3.720;2023-04-03T00:06:39;5.40;99.90
20977;DHT22;10647;51.016;3.720;2023-04-03T00:09:06;5.40;99.90
20977;DHT22;10647;51.016;3.720;2023-04-03T00:11:53;5.40;99.90
20977;DHT22;10647;51.016;3.720;2023-04-03T00:14:21;5.50;99.90
20977;DHT22;10647;51.016;3.720;2023-04-03T00:16:48;5.50;99.90
20977;DHT22;10647;51.016;3.720;2023-04-03T00:19:21;5.60;99.90
20977;DHT22;10647;51.016;3.720;2023-04-03T00:21:54;5.60;99.90
20977;DHT22;10647;51.016;3.720;2023-04-03T00:24:42;5.60;99.90
20977;DHT22;10647;51.016;3.720;2023-04-03T00:27:10;5.60;99.90
20977;DHT22;10647;51.016;3.720;2023-04-03T00:29:41;5.60;99.90
20977;DHT22;10647;51.016;3.720;2023-04-03T00:32:09;5.60;99.90
20977;DHT22;10647;51.016;3.720;2023-04-03T00:34:37;5.70;99.90
20977;DHT22;10647;51.016;3.720;2023-04-03T00:37:06;5.70;99.90
20977;DHT22;10647;51.016;3.720;2023-04-03T00:39:34;5.70;99.90
20977;DHT22;10647;51.016;3.720;2023-04-03T00:42:01;5.70;99.90
20977;DHT22;10647;51.016;3.720;2023-04-03T00:47:05;5.60;99.90
20977;DHT22;10647;51.016;3.720;2023-04-03T00:49:52;5.60;99.90
20977;DHT22;10647;51.016;3.720;2023-04-03T00:52:23;5.60;99.90
20977;DHT22;10647;51.016;3.720;2023-04-03T00:55:10;5.60;99.90
20977;DHT22;10647;51.016;3.720;2023-04-03T00:57:39;5.60;99.90
20977;DHT22;10647;51.016;3.720;2023-04-03T01:00:13;5.50;99.90
20977;DHT22;10647;51.016;3.720;2023-04-03T01:02:42;5.50;99.90
20977;DHT22;10647;51.016;3.720;2023-04-03T01:05:11;5.50;99.90
20977;DHT22;10647;51.016;3.720;2023-04-03T01:07:40;5.50;99.90
20977;DHT22;10647;51.016;3.720;2023-04-03T01:10:11;5.50;99.90
20977;DHT22;10647;51.016;3.720;2023-04-03T01:12:42;5.40;99.90
20977;DHT22;10647;51.016;3.720;2023-04-03T01:15:17;5.40;99.90
20977;DHT22;10647;51.016;3.720;2023-04-03T01:17:47;5.40;99.90
20977;DHT22;10647;51.016;3.720;2023-04-03T01:23:32;5.40;99.90
20977;DHT22;10647;51.016;3.720;2023-04-03T01:26:00;5.40;99.90
20977;DHT22;10647;51.016;3.720;2023-04-03T01:31:31;5.40;99.90
20977;DHT22;10647;51.016;3.720;2023-04-03T01:34:03;5.30;99.90
20977;DHT22;10647;51.016;3.720;2023-04-03T01:36:36;5.30;99.90
20977;DHT22;10647;51.016;3.720;2023-04-03T01:39:04;5.30;99.90
20977;DHT22;10647;51.016;3.720;2023-04-03T01:41:31;5.40;99.90
20977;DHT22;10647;51.016;3.720;2023-04-03T01:43:59;5.40;99.90
20977;DHT22;10647;51.016;3.720;2023-04-03T01:46:32;5.40;99.90
20977;DHT22;10647;51.016;3.720;2023-04-03T01:49:00;5.50;99.90
20977;DHT22;10647;51.016;3.720;2023-04-03T01:51:29;5.50;99.90
20977;DHT22;10647;51.016;3.720;2023-04-03T01:53:56;5.50;99.90
20977;DHT22;10647;51.016;3.720;2023-04-03T01:56:25;5.50;99.90
20977;DHT22;10647;51.016;3.720;2023-04-03T01:58:53;5.50;99.90
20977;DHT22;10647;51.016;3.720;2023-04-03T02:01:23;5.60;99.90
20977;DHT22;10647;51.016;3.720;2023-04-03T02:03:54;5.60;99.90
20977;DHT22;10647;51.016;3.720;2023-04-03T02:06:24;5.60;99.90
20977;DHT22;10647;51.016;3.720;2023-04-03T02:08:52;5.60;99.90
20977;DHT22;10647;51.016;3.720;2023-04-03T02:11:20;5.60;99.90
20977;DHT22;10647;51.016;3.720;2023-04-03T02:13:48;5.60;99.90
20977;DHT22;10647;51.016;3.720;2023-04-03T02:16:17;5.60;99.90
20977;DHT22;10647;51.016;3.720;2023-04-03T02:18:44;5.60;99.90
20977;DHT22;10647;51.016;3.720;2023-04-03T02:21:12;5.60;99.90
20977;DHT22;10647;51.016;3.720;2023-04-03T02:23:40;5.60;99.90
20977;DHT22;10647;51.016;3.720;2023-04-03T02:26:10;5.60;99.90
20977;DHT22;10647;51.016;3.720;2023-04-03T02:28:38;5.60;99.90
20977;DHT22;10647;51.016;3.720;2023-04-03T02:31:07;5.60;99.90
20977;DHT22;10647;51.016;3.720;2023-04-03T02:33:36;5.60;99.90
20977;DHT22;10647;51.016;3.720;2023-04-03T02:36:05;5.60;99.90
20977;DHT22;10647;51.016;3.720;2023-04-03T02:38:38;5.60;99.90
20977;DHT22;10647;51.016;3.720;2023-04-03T02:44:00;5.50;99.90
20977;DHT22;10647;51.016;3.720;2023-04-03T02:46:27;5.50;99.90
20977;DHT22;10647;51.016;3.720;2023-04-03T02:48:55;5.50;99.90
20977;DHT22;10647;51.016;3.720;2023-04-03T02:51:23;5.50;99.90
20977;DHT22;10647;51.016;3.720;2023-04-03T02:53:50;5.50;99.90
20977;DHT22;10647;51.016;3.720;2023-04-03T02:56:18;5.60;99.90
20977;DHT22;10647;51.016;3.720;2023-04-03T02:58:46;5.60;99.90
20977;DHT22;10647;51.016;3.720;2023-04-03T03:01:14;5.60;99.90
20977;DHT22;10647;51.016;3.720;2023-04-03T03:03:42;5.50;99.90
20977;DHT22;10647;51.016;3.720;2023-04-03T03:06:12;5.50;99.90
20977;DHT22;10647;51.016;3.720;2023-04-03T03:08:40;5.50;99.90
20977;DHT22;10647;51.016;3.720;2023-04-03T03:11:14;5.40;99.90
20977;DHT22;10647;51.016;3.720;2023-04-03T03:13:41;5.40;99.90
20977;DHT22;10647;51.016;3.720;2023-04-03T03:16:09;5.40;99.90
20977;DHT22;10647;51.016;3.720;2023-04-03T03:19:04;5.30;99.90
20977;DHT22;10647;51.016;3.720;2023-04-03T03:21:33;5.30;99.90
20977;DHT22;10647;51.016;3.720;2023-04-03T03:24:01;5.30;99.90
20977;DHT22;10647;51.016;3.720;2023-04-03T03:26:29;5.30;99.90
20977;DHT22;10647;51.016;3.720;2023-04-03T03:28:56;5.20;99.90
20977;DHT22;10647;51.016;3.720;2023-04-03T03:31:24;5.20;99.90
20977;DHT22;10647;51.016;3.720;2023-04-03T03:33:51;5.20;99.90
20977;DHT22;10647;51.016;3.720;2023-04-03T03:36:19;5.10;99.90
20977;DHT22;10647;51.016;3.720;2023-04-03T03:39:06;5.20;99.90
20977;DHT22;10647;51.016;3.720;2023-04-03T03:41:33;5.10;99.90
20977;DHT22;10647;51.016;3.720;2023-04-03T03:44:01;5.10;99.90
20977;DHT22;10647;51.016;3.720;2023-04-03T03:46:28;5.10;99.90
20977;DHT22;10647;51.016;3.720;2023-04-03T03:48:56;5.10;99.90
20977;DHT22;10647;51.016;3.720;2023-04-03T03:51:24;5.00;99.90
20977;DHT22;10647;51.016;3.720;2023-04-03T03:53:51;5.10;99.90
20977;DHT22;10647;51.016;3.720;2023-04-03T03:56:19;5.00;99.90
20977;DHT22;10647;51.016;3.720;2023-04-03T03:58:47;5.00;99.90
20977;DHT22;10647;51.016;3.720;2023-04-03T04:01:16;5.00;99.90
20977;DHT22;10647;51.016;3.720;2023-04-03T04:03:43;5.00;99.90
20977;DHT22;10647;51.016;3.720;2023-04-03T04:06:11;4.90;99.90
20977;DHT22;10647;51.016;3.720;2023-04-03T04:08:45;4.90;99.90
20977;DHT22;10647;51.016;3.720;2023-04-03T04:11:12;4.90;99.90
20977;DHT22;10647;51.016;3.720;2023-04-03T04:13:41;4.90;99.90
20977;DHT22;10647;51.016;3.720;2023-04-03T04:16:11;4.80;99.90
20977;DHT22;10647;51.016;3.720;2023-04-03T04:18:41;4.80;99.90
20977;DHT22;10647;51.016;3.720;2023-04-03T04:21:14;4.80;99.90
20977;DHT22;10647;51.016;3.720;2023-04-03T04:23:42;4.80;99.90
20977;DHT22;10647;51.016;3.720;2023-04-03T04:26:10;4.80;99.90
20977;DHT22;10647;51.016;3.720;2023-04-03T04:28:38;4.80;99.90
20977;DHT22;10647;51.016;3.720;2023-04-03T04:31:06;4.80;99.90
20977;DHT22;10647;51.016;3.720;2023-04-03T04:33:33;4.80;99.90
20977;DHT22;10647;51.016;3.720;2023-04-03T04:36:01;4.80;99.90
20977;DHT22;10647;51.016;3.720;2023-04-03T04:38:28;4.70;99.90
20977;DHT22;10647;51.016;3.720;2023-04-03T04:40:56;4.70;99.90
20977;DHT22;10647;51.016;3.720;2023-04-03T04:43:23;4.70;99.90
20977;DHT22;10647;51.016;3.720;2023-04-03T04:46:05;4.70;99.90
20977;DHT22;10647;51.016;3.720;2023-04-03T04:48:34;4.70;99.90
20977;DHT22;10647;51.016;3.720;2023-04-03T04:51:02;4.70;99.90
20977;DHT22;10647;51.016;3.720;2023-04-03T04:53:31;4.60;99.90
20977;DHT22;10647;51.016;3.720;2023-04-03T04:55:58;4.60;99.90
20977;DHT22;10647;51.016;3.720;2023-04-03T04:58:26;4.60;99.90
20977;DHT22;10647;51.016;3.720;2023-04-03T05:01:04;4.50;99.90
20977;DHT22;10647;51.016;3.720;2023-04-03T05:03:37;4.50;99.90
20977;DHT22;10647;51.016;3.720;2023-04-03T05:06:05;4.50;99.90
20977;DHT22;10647;51.016;3.720;2023-04-03T05:08:32;4.50;99.90
20977;DHT22;10647;51.016;3.720;2023-04-03T05:11:00;4.50;99.90
20977;DHT22;10647;51.016;3.720;2023-04-03T05:13:27;4.50;99.90
20977;DHT22;10647;51.016;3.720;2023-04-03T05:15:55;4.50;99.90
20977;DHT22;10647;51.016;3.720;2023-04-03T05:18:23;4.50;99.90
20977;DHT22;10647;51.016;3.720;2023-04-03T05:20:50;4.50;99.90
20977;DHT22;10647;51.016;3.720;2023-04-03T05:23:18;4.50;99.90
20977;DHT22;10647;51.016;3.720;2023-04-03T05:25:46;4.50;99.90
20977;DHT22;10647;51.016;3.720;2023-04-03T05:28:15;4.50;99.90
20977;DHT22;10647;51.016;3.720;2023-04-03T05:30:42;4.50;99.90
20977;DHT22;10647;51.016;3.720;2023-04-03T05:33:11;4.50;99.90
20977;DHT22;10647;51.016;3.720;2023-04-03T05:35:40;4.50;99.90
20977;DHT22;10647;51.016;3.720;2023-04-03T05:38:09;4.50;99.90
20977;DHT22;10647;51.016;3.720;2023-04-03T05:40:36;4.60;99.90
20977;DHT22;10647;51.016;3.720;2023-04-03T05:43:04;4.60;99.90
20977;DHT22;10647;51.016;3.720;2023-04-03T05:45:32;4.70;99.90
20977;DHT22;10647;51.016;3.720;2023-04-03T05:47:59;4.70;99.90
20977;DHT22;10647;51.016;3.720;2023-04-03T05:50:28;4.80;99.90
20977;DHT22;10647;51.016;3.720;2023-04-03T05:52:58;4.80;99.90
20977;DHT22;10647;51.016;3.720;2023-04-03T05:55:32;4.80;99.90
20977;DHT22;10647;51.016;3.720;2023-04-03T05:58:02;4.90;99.90
20977;DHT22;10647;51.016;3.720;2023-04-03T06:00:29;5.00;99.90
20977;DHT22;10647;51.016;3.720;2023-04-03T06:02:57;5.00;99.90
20977;DHT22;10647;51.016;3.720;2023-04-03T06:05:25;5.10;99.90
20977;DHT22;10647;51.016;3.720;2023-04-03T06:07:58;5.20;99.90
20977;DHT22;10647;51.016;3.720;2023-04-03T06:10:31;5.20;99.90
20977;DHT22;10647;51.016;3.720;2023-04-03T06:13:11;5.30;99.90
20977;DHT22;10647;51.016;3.720;2023-04-03T06:15:42;5.40;99.90
20977;DHT22;10647;51.016;3.720;2023-04-03T06:18:16;5.50;99.90
20977;DHT22;10647;51.016;3.720;2023-04-03T06:20:49;5.50;99.90
20977;DHT22;10647;51.016;3.720;2023-04-03T06:23:38;5.60;99.90
20977;DHT22;10647;51.016;3.720;2023-04-03T06:26:09;5.70;99.90
20977;DHT22;10647;51.016;3.720;2023-04-03T06:28:39;5.80;99.90
20977;DHT22;10647;51.016;3.720;2023-04-03T06:31:13;5.90;99.90
20977;DHT22;10647;51.016;3.720;2023-04-03T06:33:41;5.90;99.90
20977;DHT22;10647;51.016;3.720;2023-04-03T06:36:10;6.10;99.90
20977;DHT22;10647;51.016;3.720;2023-04-03T06:38:39;6.10;99.90
20977;DHT22;10647;51.016;3.720;2023-04-03T06:41:06;6.20;99.90
20977;DHT22;10647;51.016;3.720;2023-04-03T06:43:40;6.30;99.90
20977;DHT22;10647;51.016;3.720;2023-04-03T06:46:15;6.40;99.90
20977;DHT22;10647;51.016;3.720;2023-04-03T06:48:44;6.50;99.90
20977;DHT22;10647;51.016;3.720;2023-04-03T06:51:21;6.60;99.90
20977;DHT22;10647;51.016;3.720;2023-04-03T06:54:09;6.70;99.90
20977;DHT22;10647;51.016;3.720;2023-04-03T06:56:36;6.80;99.90
20977;DHT22;10647;51.016;3.720;2023-04-03T06:59:05;6.80;99.90
20977;DHT22;10647;51.016;3.720;2023-04-03T07:01:34;6.90;99.90
20977;DHT22;10647;51.016;3.720;2023-04-03T07:04:21;7.00;99.90
20977;DHT22;10647;51.016;3.720;2023-04-03T07:06:49;7.10;99.90
20977;DHT22;10647;51.016;3.720;2023-04-03T07:09:17;7.10;99.90
20977;DHT22;10647;51.016;3.720;2023-04-03T07:11:44;7.20;99.90
20977;DHT22;10647;51.016;3.720;2023-04-03T07:14:12;7.30;99.90
20977;DHT22;10647;51.016;3.720;2023-04-03T07:16:41;7.40;99.90
20977;DHT22;10647;51.016;3.720;2023-04-03T07:19:09;7.50;99.90
20977;DHT22;10647;51.016;3.720;2023-04-03T07:21:37;7.50;99.90
20977;DHT22;10647;51.016;3.720;2023-04-03T07:24:05;7.60;99.90
20977;DHT22;10647;51.016;3.720;2023-04-03T07:26:33;7.70;99.90
20977;DHT22;10647;51.016;3.720;2023-04-03T07:29:00;7.80;99.90
20977;DHT22;10647;51.016;3.720;2023-04-03T07:31:28;7.80;99.90
20977;DHT22;10647;51.016;3.720;2023-04-03T07:33:55;7.90;99.90
20977;DHT22;10647;51.016;3.720;2023-04-03T07:36:23;7.90;99.90
20977;DHT22;10647;51.016;3.720;2023-04-03T07:38:51;8.00;99.90
20977;DHT22;10647;51.016;3.720;2023-04-03T07:41:19;8.10;99.90
20977;DHT22;10647;51.016;3.720;2023-04-03T07:43:48;8.20;99.90
20977;DHT22;10647;51.016;3.720;2023-04-03T07:46:16;8.30;99.90
20977;DHT22;10647;51.016;3.720;2023-04-03T07:48:44;8.40;99.90
20977;DHT22;10647;51.016;3.720;2023-04-03T07:51:12;8.40;99.90
20977;DHT22;10647;51.016;3.720;2023-04-03T07:53:40;8.50;99.90
20977;DHT22;10647;51.016;3.720;2023-04-03T07:56:08;8.50;99.90
20977;DHT22;10647;51.016;3.720;2023-04-03T07:58:36;8.50;99.90
20977;DHT22;10647;51.016;3.720;2023-04-03T08:01:04;8.60;99.90
20977;DHT22;10647;51.016;3.720;2023-04-03T08:03:32;8.70;99.90
20977;DHT22;10647;51.016;3.720;2023-04-03T08:06:04;8.70;99.90
20977;DHT22;10647;51.016;3.720;2023-04-03T08:08:33;8.80;99.90
20977;DHT22;10647;51.016;3.720;2023-04-03T08:11:02;8.80;99.90
20977;DHT22;10647;51.016;3.720;2023-04-03T08:13:32;8.90;99.90
20977;DHT22;10647;51.016;3.720;2023-04-03T08:16:09;9.00;99.90
20977;DHT22;10647;51.016;3.720;2023-04-03T08:18:37;9.10;99.90
20977;DHT22;10647;51.016;3.720;2023-04-03T08:21:07;9.10;99.90
20977;DHT22;10647;51.016;3.720;2023-04-03T08:23:34;9.10;99.90
20977;DHT22;10647;51.016;3.720;2023-04-03T08:26:14;9.20;99.90
20977;DHT22;10647;51.016;3.720;2023-04-03T08:28:39;9.20;99.90
20977;DHT22;10647;51.016;3.720;2023-04-03T08:31:09;9.30;99.90
20977;DHT22;10647;51.016;3.720;2023-04-03T08:33:39;9.30;99.90
20977;DHT22;10647;51.016;3.720;2023-04-03T08:36:14;9.40;99.90
20977;DHT22;10647;51.016;3.720;2023-04-03T08:38:36;9.60;99.90
20977;DHT22;10647;51.016;3.720;2023-04-03T08:46:54;9.70;99.90
20977;DHT22;10647;51.016;3.720;2023-04-03T08:49:57;9.80;99.90
20977;DHT22;10647;51.016;3.720;2023-04-03T08:52:33;9.70;99.90
20977;DHT22;10647;51.016;3.720;2023-04-03T08:55:34;9.80;99.90
20977;DHT22;10647;51.016;3.720;2023-04-03T08:58:10;9.90;99.90
20977;DHT22;10647;51.016;3.720;2023-04-03T09:01:20;10.00;99.90
20977;DHT22;10647;51.016;3.720;2023-04-03T09:03:12;10.10;99.90
20977;DHT22;10647;51.016;3.720;2023-04-03T09:06:05;10.20;99.90
20977;DHT22;10647;51.016;3.720;2023-04-03T09:26:09;10.50;99.90
20977;DHT22;10647;51.016;3.720;2023-04-03T09:28:39;10.60;99.90
20977;DHT22;10647;51.016;3.720;2023-04-03T09:31:35;10.70;99.90
20977;DHT22;10647;51.016;3.720;2023-04-03T09:33:59;10.60;99.90
20977;DHT22;10647;51.016;3.720;2023-04-03T09:36:48;10.50;99.90
20977;DHT22;10647;51.016;3.720;2023-04-03T09:39:26;10.50;99.90
20977;DHT22;10647;51.016;3.720;2023-04-03T09:41:57;10.40;99.90
20977;DHT22;10647;51.016;3.720;2023-04-03T09:44:30;10.50;99.90
20977;DHT22;10647;51.016;3.720;2023-04-03T09:47:26;10.60;99.90
20977;DHT22;10647;51.016;3.720;2023-04-03T09:52:47;10.80;99.90
20977;DHT22;10647;51.016;3.720;2023-04-03T09:55:17;10.90;99.90
20977;DHT22;10647;51.016;3.720;2023-04-03T09:57:46;10.90;99.90
20977;DHT22;10647;51.016;3.720;2023-04-03T10:03:31;10.90;99.90
20977;DHT22;10647;51.016;3.720;2023-04-03T10:14:59;11.20;99.90
20977;DHT22;10647;51.016;3.720;2023-04-03T10:17:57;11.20;99.90
20977;DHT22;10647;51.016;3.720;2023-04-03T10:32:26;11.70;99.90
20977;DHT22;10647;51.016;3.720;2023-04-03T10:35:29;11.80;99.90
20977;DHT22;10647;51.016;3.720;2023-04-03T10:38:05;11.80;99.90
20977;DHT22;10647;51.016;3.720;2023-04-03T10:40:55;11.70;99.90
20977;DHT22;10647;51.016;3.720;2023-04-03T10:43:33;11.60;99.90
20977;DHT22;10647;51.016;3.720;2023-04-03T10:46:08;11.60;99.90
20977;DHT22;10647;51.016;3.720;2023-04-03T10:57:15;12.10;99.90
20977;DHT22;10647;51.016;3.720;2023-04-03T11:00:03;12.20;99.90
20977;DHT22;10647;51.016;3.720;2023-04-03T11:02:54;12.30;99.90
20977;DHT22;10647;51.016;3.720;2023-04-03T11:05:21;12.30;99.90
20977;DHT22;10647;51.016;3.720;2023-04-03T11:07:47;12.20;99.90
20977;DHT22;10647;51.016;3.720;2023-04-03T11:10:19;12.20;99.90
20977;DHT22;10647;51.016;3.720;2023-04-03T11:12:52;12.20;99.90
20977;DHT22;10647;51.016;3.720;2023-04-03T11:15:20;12.30;99.90
20977;DHT22;10647;51.016;3.720;2023-04-03T11:17:58;12.40;99.90
20977;DHT22;10647;51.016;3.720;2023-04-03T11:20:31;12.50;99.90
20977;DHT22;10647;51.016;3.720;2023-04-03T11:25:53;12.80;99.90
20977;DHT22;10647;51.016;3.720;2023-04-03T11:28:21;12.80;99.90
20977;DHT22;10647;51.016;3.720;2023-04-03T11:31:08;12.90;99.90
20977;DHT22;10647;51.016;3.720;2023-04-03T11:36:47;13.00;99.90
20977;DHT22;10647;51.016;3.720;2023-04-03T11:42:32;12.80;99.90
20977;DHT22;10647;51.016;3.720;2023-04-03T11:47:54;13.10;99.90
20977;DHT22;10647;51.016;3.720;2023-04-03T11:53:35;13.00;99.90
20977;DHT22;10647;51.016;3.720;2023-04-03T11:56:27;13.20;99.90
20977;DHT22;10647;51.016;3.720;2023-04-03T11:58:34;13.40;99.90
20977;DHT22;10647;51.016;3.720;2023-04-03T12:01:10;13.50;99.90
20977;DHT22;10647;51.016;3.720;2023-04-03T12:09:15;13.70;99.90
20977;DHT22;10647;51.016;3.720;2023-04-03T12:11:36;13.70;99.90
20977;DHT22;10647;51.016;3.720;2023-04-03T12:14:12;13.70;99.90
20977;DHT22;10647;51.016;3.720;2023-04-03T12:24:23;13.90;99.90
20977;DHT22;10647;51.016;3.720;2023-04-03T12:29:37;13.90;99.90
20977;DHT22;10647;51.016;3.720;2023-04-03T12:46:23;14.10;99.90
20977;DHT22;10647;51.016;3.720;2023-04-03T12:48:53;13.90;99.90
20977;DHT22;10647;51.016;3.720;2023-04-03T12:54:30;14.10;99.90
20977;DHT22;10647;51.016;3.720;2023-04-03T12:59:44;14.30;99.90
20977;DHT22;10647;51.016;3.720;2023-04-03T13:02:25;14.30;99.90
20977;DHT22;10647;51.016;3.720;2023-04-03T13:05:15;14.80;99.90
20977;DHT22;10647;51.016;3.720;2023-04-03T13:07:42;19.30;99.90
20977;DHT22;10647;51.016;3.720;2023-04-03T13:12:50;26.20;99.90
20977;DHT22;10647;51.016;3.720;2023-04-03T13:15:29;28.10;97.40
20977;DHT22;10647;51.016;3.720;2023-04-03T13:17:58;29.60;91.80
20977;DHT22;10647;51.016;3.720;2023-04-03T13:20:30;31.00;87.40
20977;DHT22;10647;51.016;3.720;2023-04-03T13:23:07;31.80;77.30
20977;DHT22;10647;51.016;3.720;2023-04-03T13:25:39;32.60;72.40
20977;DHT22;10647;51.016;3.720;2023-04-03T13:28:09;32.90;60.30
20977;DHT22;10647;51.016;3.720;2023-04-03T13:30:37;32.70;56.50
20977;DHT22;10647;51.016;3.720;2023-04-03T13:33:19;33.00;54.10
20977;DHT22;10647;51.016;3.720;2023-04-03T13:35:39;33.70;55.20
20977;DHT22;10647;51.016;3.720;2023-04-03T13:38:24;34.30;52.80
20977;DHT22;10647;51.016;3.720;2023-04-03T13:40:55;34.80;53.10
20977;DHT22;10647;51.016;3.720;2023-04-03T13:43:27;34.30;45.20
20977;DHT22;10647;51.016;3.720;2023-04-03T13:46:27;34.60;47.20
20977;DHT22;10647;51.016;3.720;2023-04-03T13:48:42;34.60;43.70
20977;DHT22;10647;51.016;3.720;2023-04-03T13:56:29;35.90;39.40
20977;DHT22;10647;51.016;3.720;2023-04-03T13:58:58;36.00;37.60
20977;DHT22;10647;51.016;3.720;2023-04-03T14:01:32;36.10;35.90
20977;DHT22;10647;51.016;3.720;2023-04-03T14:03:58;36.20;35.10
20977;DHT22;10647;51.016;3.720;2023-04-03T14:06:26;36.10;33.30
20977;DHT22;10647;51.016;3.720;2023-04-03T14:08:53;35.90;32.00
20977;DHT22;10647;51.016;3.720;2023-04-03T14:11:24;35.90;32.20
20977;DHT22;10647;51.016;3.720;2023-04-03T14:13:53;36.20;31.60
20977;DHT22;10647;51.016;3.720;2023-04-03T14:16:25;36.50;31.10
20977;DHT22;10647;51.016;3.720;2023-04-03T14:18:53;36.10;30.30
20977;DHT22;10647;51.016;3.720;2023-04-03T14:21:21;35.90;29.90
20977;DHT22;10647;51.016;3.720;2023-04-03T14:23:50;36.20;31.00
20977;DHT22;10647;51.016;3.720;2023-04-03T14:26:24;36.40;30.10
20977;DHT22;10647;51.016;3.720;2023-04-03T14:28:50;36.10;29.60
20977;DHT22;10647;51.016;3.720;2023-04-03T14:31:18;36.40;30.00
20977;DHT22;10647;51.016;3.720;2023-04-03T14:33:47;36.70;29.60
20977;DHT22;10647;51.016;3.720;2023-04-03T14:36:23;36.80;29.30
20977;DHT22;10647;51.016;3.720;2023-04-03T14:38:53;36.70;28.90
20977;DHT22;10647;51.016;3.720;2023-04-03T14:41:23;36.70;29.00
20977;DHT22;10647;51.016;3.720;2023-04-03T14:43:51;36.70;29.20
20977;DHT22;10647;51.016;3.720;2023-04-03T14:46:35;36.10;28.80
20977;DHT22;10647;51.016;3.720;2023-04-03T14:48:59;35.60;28.90
20977;DHT22;10647;51.016;3.720;2023-04-03T14:51:27;35.50;29.00
20977;DHT22;10647;51.016;3.720;2023-04-03T14:53:54;35.10;28.70
20977;DHT22;10647;51.016;3.720;2023-04-03T14:56:24;34.70;28.90
20977;DHT22;10647;51.016;3.720;2023-04-03T14:58:58;33.90;29.30
20977;DHT22;10647;51.016;3.720;2023-04-03T15:01:26;33.40;29.40
20977;DHT22;10647;51.016;3.720;2023-04-03T15:03:55;32.40;29.30
20977;DHT22;10647;51.016;3.720;2023-04-03T15:06:22;30.50;29.50
20977;DHT22;10647;51.016;3.720;2023-04-03T15:08:50;28.60;31.00
20977;DHT22;10647;51.016;3.720;2023-04-03T15:11:18;27.60;32.70
20977;DHT22;10647;51.016;3.720;2023-04-03T15:13:46;26.70;33.40
20977;DHT22;10647;51.016;3.720;2023-04-03T15:16:18;25.60;34.00
20977;DHT22;10647;51.016;3.720;2023-04-03T15:18:47;24.30;35.00
20977;DHT22;10647;51.016;3.720;2023-04-03T15:21:14;23.50;36.30
20977;DHT22;10647;51.016;3.720;2023-04-03T15:23:43;23.80;37.10
20977;DHT22;10647;51.016;3.720;2023-04-03T15:26:10;24.30;37.00
20977;DHT22;10647;51.016;3.720;2023-04-03T15:28:40;25.00;36.60
20977;DHT22;10647;51.016;3.720;2023-04-03T15:31:09;25.30;36.20
20977;DHT22;10647;51.016;3.720;2023-04-03T15:33:36;25.20;35.50
20977;DHT22;10647;51.016;3.720;2023-04-03T15:36:04;24.20;35.20
20977;DHT22;10647;51.016;3.720;2023-04-03T15:38:33;23.90;36.50
20977;DHT22;10647;51.016;3.720;2023-04-03T15:41:01;23.80;37.30
20977;DHT22;10647;51.016;3.720;2023-04-03T15:43:28;24.00;36.70
20977;DHT22;10647;51.016;3.720;2023-04-03T15:45:58;23.40;36.60
20977;DHT22;10647;51.016;3.720;2023-04-03T15:48:27;22.40;37.10
20977;DHT22;10647;51.016;3.720;2023-04-03T15:50:55;21.80;38.40
20977;DHT22;10647;51.016;3.720;2023-04-03T15:53:23;21.40;39.20
20977;DHT22;10647;51.016;3.720;2023-04-03T15:55:51;20.80;39.80
20977;DHT22;10647;51.016;3.720;2023-04-03T15:58:18;20.00;40.30
20977;DHT22;10647;51.016;3.720;2023-04-03T16:00:47;19.60;41.20
20977;DHT22;10647;51.016;3.720;2023-04-03T16:03:20;19.20;41.60
20977;DHT22;10647;51.016;3.720;2023-04-03T16:05:50;18.90;42.00
20977;DHT22;10647;51.016;3.720;2023-04-03T16:08:18;18.30;42.50
20977;DHT22;10647;51.016;3.720;2023-04-03T16:10:45;18.00;43.40
20977;DHT22;10647;51.016;3.720;2023-04-03T16:13:15;18.20;43.80
20977;DHT22;10647;51.016;3.720;2023-04-03T16:15:42;18.00;44.40
20977;DHT22;10647;51.016;3.720;2023-04-03T16:18:10;17.70;44.40
20977;DHT22;10647;51.016;3.720;2023-04-03T16:20:40;17.30;45.10
20977;DHT22;10647;51.016;3.720;2023-04-03T16:23:10;17.30;45.60
20977;DHT22;10647;51.016;3.720;2023-04-03T16:25:38;17.20;45.40
20977;DHT22;10647;51.016;3.720;2023-04-03T16:28:06;17.10;45.00
20977;DHT22;10647;51.016;3.720;2023-04-03T16:30:33;17.10;45.00
20977;DHT22;10647;51.016;3.720;2023-04-03T16:33:01;16.90;44.80
20977;DHT22;10647;51.016;3.720;2023-04-03T16:35:30;16.60;45.00
20977;DHT22;10647;51.016;3.720;2023-04-03T16:37:58;16.40;45.60
20977;DHT22;10647;51.016;3.720;2023-04-03T16:40:26;16.30;45.70
20977;DHT22;10647;51.016;3.720;2023-04-03T16:42:53;16.20;46.00
20977;DHT22;10647;51.016;3.720;2023-04-03T16:45:22;16.10;46.30
20977;DHT22;10647;51.016;3.720;2023-04-03T16:47:49;15.80;46.60
20977;DHT22;10647;51.016;3.720;2023-04-03T16:50:17;15.50;47.00
20977;DHT22;10647;51.016;3.720;2023-04-03T16:52:46;15.40;47.10
20977;DHT22;10647;51.016;3.720;2023-04-03T16:55:13;15.40;47.30
20977;DHT22;10647;51.016;3.720;2023-04-03T16:57:41;15.20;47.60
20977;DHT22;10647;51.016;3.720;2023-04-03T17:00:09;15.20;48.10
20977;DHT22;10647;51.016;3.720;2023-04-03T17:02:38;15.30;48.10
20977;DHT22;10647;51.016;3.720;2023-04-03T17:05:26;15.30;47.80
20977;DHT22;10647;51.016;3.720;2023-04-03T17:07:53;15.40;48.00
20977;DHT22;10647;51.016;3.720;2023-04-03T17:10:21;15.20;48.50
20977;DHT22;10647;51.016;3.720;2023-04-03T17:12:49;15.30;47.90
20977;DHT22;10647;51.016;3.720;2023-04-03T17:15:18;15.30;48.20
20977;DHT22;10647;51.016;3.720;2023-04-03T17:17:47;15.30;48.30
20977;DHT22;10647;51.016;3.720;2023-04-03T17:20:16;15.20;48.30
20977;DHT22;10647;51.016;3.720;2023-04-03T17:22:43;15.00;48.00
20977;DHT22;10647;51.016;3.720;2023-04-03T17:25:11;14.80;48.30
20977;DHT22;10647;51.016;3.720;2023-04-03T17:27:40;14.70;48.50
20977;DHT22;10647;51.016;3.720;2023-04-03T17:30:08;14.50;49.00
20977;DHT22;10647;51.016;3.720;2023-04-03T17:32:36;14.40;49.40
20977;DHT22;10647;51.016;3.720;2023-04-03T17:35:04;14.30;49.70
20977;DHT22;10647;51.016;3.720;2023-04-03T17:37:32;14.20;50.20
20977;DHT22;10647;51.016;3.720;2023-04-03T17:39:59;14.10;50.80
20977;DHT22;10647;51.016;3.720;2023-04-03T17:42:27;14.00;51.40
20977;DHT22;10647;51.016;3.720;2023-04-03T17:44:56;14.00;51.70
20977;DHT22;10647;51.016;3.720;2023-04-03T17:47:24;13.90;52.00
20977;DHT22;10647;51.016;3.720;2023-04-03T17:49:52;13.80;52.50
20977;DHT22;10647;51.016;3.720;2023-04-03T17:52:19;13.70;52.70
20977;DHT22;10647;51.016;3.720;2023-04-03T17:54:51;13.60;52.80
20977;DHT22;10647;51.016;3.720;2023-04-03T17:57:18;13.70;53.00
20977;DHT22;10647;51.016;3.720;2023-04-03T17:59:46;13.80;53.10
20977;DHT22;10647;51.016;3.720;2023-04-03T18:02:32;13.70;53.00
20977;DHT22;10647;51.016;3.720;2023-04-03T18:05:00;13.50;53.60
20977;DHT22;10647;51.016;3.720;2023-04-03T18:07:28;13.30;53.70
20977;DHT22;10647;51.016;3.720;2023-04-03T18:12:45;13.10;54.50
20977;DHT22;10647;51.016;3.720;2023-04-03T18:15:12;13.00;55.00